sensor_id;sensor_type;location;lat;lon;timestamp;pressure;altitude;pressure_sealevel;temperature;humidity
27805;BME280;15183;51.350;11.102;2023-07-30T00:02:18;99356.59;;;21.23;70.31
27805;BME280;15183;51.350;11.102;2023-07-30T00:04:45;99365.00;;;21.21;69.92
27805;BME280;15183;51.350;11.102;2023-07-30T00:07:13;99377.47;;;21.17;70.16
27805;BME280;15183;51.350;11.102;2023-07-30T00:09:40;99381.78;;;21.18;70.62
27805;BME280;15183;51.350;11.102;2023-07-30T00:12:08;99355.59;;;21.10;70.44
27805;BME280;15183;51.350;11.102;2023-07-30T00:14:35;99386.13;;;21.28;70.46
27805;BME280;15183;51.350;11.102;2023-07-30T00:17:02;99367.44;;;21.32;70.34
27805;BME280;15183;51.350;11.102;2023-07-30T00:19:29;99363.00;;;21.36;69.75
27805;BME280;15183;51.350;11.102;2023-07-30T00:21:56;99376.84;;;21.43;69.45
27805;BME280;15183;51.350;11.102;2023-07-30T00:24:23;99378.63;;;21.48;69.39
27805;BME280;15183;51.350;11.102;2023-07-30T00:26:50;99384.31;;;21.46;69.56
27805;BME280;15183;51.350;11.102;2023-07-30T00:29:16;99362.97;;;21.27;69.54
27805;BME280;15183;51.350;11.102;2023-07-30T00:31:43;99358.81;;;21.21;69.81
27805;BME280;15183;51.350;11.102;2023-07-30T00:34:09;99386.06;;;21.19;69.94
27805;BME280;15183;51.350;11.102;2023-07-30T00:36:36;99353.94;;;21.00;69.96
27805;BME280;15183;51.350;11.102;2023-07-30T00:39:02;99302.03;;;20.63;70.43
27805;BME280;15183;51.350;11.102;2023-07-30T00:41:29;99378.44;;;21.13;70.01
27805;BME280;15183;51.350;11.102;2023-07-30T00:43:56;99377.38;;;21.22;70.18
27805;BME280;15183;51.350;11.102;2023-07-30T00:46:23;99378.34;;;21.27;70.42
27805;BME280;15183;51.350;11.102;2023-07-30T00:48:50;99357.31;;;21.06;70.09
27805;BME280;15183;51.350;11.102;2023-07-30T00:51:17;99381.81;;;21.27;70.07
27805;BME280;15183;51.350;11.102;2023-07-30T00:53:45;99308.16;;;20.77;70.12
27805;BME280;15183;51.350;11.102;2023-07-30T00:56:12;99364.34;;;21.16;69.92
27805;BME280;15183;51.350;11.102;2023-07-30T00:58:41;99373.25;;;21.25;69.72
27805;BME280;15183;51.350;11.102;2023-07-30T01:01:08;99370.75;;;21.29;69.72
27805;BME280;15183;51.350;11.102;2023-07-30T01:03:35;99370.63;;;21.34;69.45
27805;BME280;15183;51.350;11.102;2023-07-30T01:06:03;99379.66;;;21.38;69.52
27805;BME280;15183;51.350;11.102;2023-07-30T01:08:29;99374.91;;;21.35;69.09
27805;BME280;15183;51.350;11.102;2023-07-30T01:10:57;99350.53;;;21.17;69.14
27805;BME280;15183;51.350;11.102;2023-07-30T01:13:24;99305.47;;;20.77;69.12
27805;BME280;15183;51.350;11.102;2023-07-30T01:15:52;99343.78;;;20.97;68.77
27805;BME280;15183;51.350;11.102;2023-07-30T01:18:20;99366.34;;;21.10;69.20
27805;BME280;15183;51.350;11.102;2023-07-30T01:20:47;99397.38;;;21.30;69.24
27805;BME280;15183;51.350;11.102;2023-07-30T01:23:14;99392.31;;;21.29;69.19
27805;BME280;15183;51.350;11.102;2023-07-30T01:25:42;99399.66;;;21.37;68.82
27805;BME280;15183;51.350;11.102;2023-07-30T01:28:14;99399.50;;;21.42;69.34
27805;BME280;15183;51.350;11.102;2023-07-30T01:30:45;99395.69;;;21.43;69.23
27805;BME280;15183;51.350;11.102;2023-07-30T01:33:12;99371.00;;;21.18;69.04
27805;BME280;15183;51.350;11.102;2023-07-30T01:35:39;99390.88;;;21.31;68.76
27805;BME280;15183;51.350;11.102;2023-07-30T01:38:08;99369.19;;;21.05;69.06
27805;BME280;15183;51.350;11.102;2023-07-30T01:40:36;99384.94;;;21.20;68.94
27805;BME280;15183;51.350;11.102;2023-07-30T01:43:02;99357.69;;;20.90;69.57
27805;BME280;15183;51.350;11.102;2023-07-30T01:45:29;99394.94;;;21.20;69.30
27805;BME280;15183;51.350;11.102;2023-07-30T01:47:55;99368.00;;;20.97;68.95
27805;BME280;15183;51.350;11.102;2023-07-30T01:50:22;99389.03;;;20.86;68.96
27805;BME280;15183;51.350;11.102;2023-07-30T01:52:48;99408.28;;;20.79;69.32
27805;BME280;15183;51.350;11.102;2023-07-30T01:55:15;99400.63;;;20.59;69.88
27805;BME280;15183;51.350;11.102;2023-07-30T01:57:42;99378.38;;;20.30;70.49
27805;BME280;15183;51.350;11.102;2023-07-30T02:00:10;99405.38;;;20.39;70.84
27805;BME280;15183;51.350;11.102;2023-07-30T02:02:37;99335.59;;;20.06;70.87
27805;BME280;15183;51.350;11.102;2023-07-30T02:05:04;99394.34;;;20.63;70.91
27805;BME280;15183;51.350;11.102;2023-07-30T02:07:30;99381.38;;;20.65;70.41
27805;BME280;15183;51.350;11.102;2023-07-30T02:09:57;99382.34;;;20.84;70.68
27805;BME280;15183;51.350;11.102;2023-07-30T02:12:23;99395.88;;;20.92;70.41
27805;BME280;15183;51.350;11.102;2023-07-30T02:14:50;99406.47;;;21.11;70.14
27805;BME280;15183;51.350;11.102;2023-07-30T02:17:17;99406.34;;;21.17;70.01
27805;BME280;15183;51.350;11.102;2023-07-30T02:19:43;99393.41;;;21.05;69.97
27805;BME280;15183;51.350;11.102;2023-07-30T02:22:10;99371.88;;;20.82;70.06
27805;BME280;15183;51.350;11.102;2023-07-30T02:24:37;99399.19;;;20.89;69.71
27805;BME280;15183;51.350;11.102;2023-07-30T02:27:03;99413.25;;;20.86;69.62
27805;BME280;15183;51.350;11.102;2023-07-30T02:29:30;99396.56;;;20.61;69.66
27805;BME280;15183;51.350;11.102;2023-07-30T02:31:57;99411.91;;;20.61;70.61
27805;BME280;15183;51.350;11.102;2023-07-30T02:34:26;99395.97;;;20.50;70.83
27805;BME280;15183;51.350;11.102;2023-07-30T02:36:53;99403.34;;;20.59;70.52
27805;BME280;15183;51.350;11.102;2023-07-30T02:39:19;99411.50;;;20.67;70.38
27805;BME280;15183;51.350;11.102;2023-07-30T02:41:46;99401.34;;;20.64;69.85
27805;BME280;15183;51.350;11.102;2023-07-30T02:44:13;99388.06;;;20.68;70.07
27805;BME280;15183;51.350;11.102;2023-07-30T02:46:40;99403.06;;;20.83;69.60
27805;BME280;15183;51.350;11.102;2023-07-30T02:49:07;99386.03;;;20.74;69.22
27805;BME280;15183;51.350;11.102;2023-07-30T02:51:35;99391.03;;;20.80;68.85
27805;BME280;15183;51.350;11.102;2023-07-30T02:54:05;99396.31;;;20.86;69.04
27805;BME280;15183;51.350;11.102;2023-07-30T02:56:32;99395.63;;;20.80;69.04
27805;BME280;15183;51.350;11.102;2023-07-30T02:58:59;99388.44;;;20.75;68.86
27805;BME280;15183;51.350;11.102;2023-07-30T03:01:25;99415.22;;;20.94;68.57
27805;BME280;15183;51.350;11.102;2023-07-30T03:03:52;99411.44;;;20.95;68.34
27805;BME280;15183;51.350;11.102;2023-07-30T03:06:20;99358.91;;;20.47;67.83
27805;BME280;15183;51.350;11.102;2023-07-30T03:08:47;99419.50;;;20.95;67.89
27805;BME280;15183;51.350;11.102;2023-07-30T03:11:14;99413.84;;;20.83;67.81
27805;BME280;15183;51.350;11.102;2023-07-30T03:13:40;99411.09;;;20.74;67.98
27805;BME280;15183;51.350;11.102;2023-07-30T03:16:07;99408.81;;;20.67;68.00
27805;BME280;15183;51.350;11.102;2023-07-30T03:18:34;99410.88;;;20.71;68.43
27805;BME280;15183;51.350;11.102;2023-07-30T03:21:00;99366.13;;;20.38;67.85
27805;BME280;15183;51.350;11.102;2023-07-30T03:23:28;99422.25;;;20.81;68.22
27805;BME280;15183;51.350;11.102;2023-07-30T03:25:54;99417.66;;;20.82;67.39
27805;BME280;15183;51.350;11.102;2023-07-30T03:28:21;99410.19;;;20.79;68.13
27805;BME280;15183;51.350;11.102;2023-07-30T03:30:47;99420.25;;;20.87;67.54
27805;BME280;15183;51.350;11.102;2023-07-30T03:33:14;99426.59;;;20.91;67.63
27805;BME280;15183;51.350;11.102;2023-07-30T03:35:41;99435.66;;;20.95;67.24
27805;BME280;15183;51.350;11.102;2023-07-30T03:38:07;99428.50;;;20.91;66.92
27805;BME280;15183;51.350;11.102;2023-07-30T03:40:34;99414.47;;;20.80;67.18
27805;BME280;15183;51.350;11.102;2023-07-30T03:43:02;99437.88;;;20.93;66.60
27805;BME280;15183;51.350;11.102;2023-07-30T03:45:29;99419.25;;;20.83;66.64
27805;BME280;15183;51.350;11.102;2023-07-30T03:47:55;99419.25;;;20.83;66.82
27805;BME280;15183;51.350;11.102;2023-07-30T03:50:22;99389.94;;;20.67;66.64
27805;BME280;15183;51.350;11.102;2023-07-30T03:52:49;99432.78;;;20.92;66.75
27805;BME280;15183;51.350;11.102;2023-07-30T03:55:16;99437.38;;;20.91;66.74
27805;BME280;15183;51.350;11.102;2023-07-30T03:57:43;99443.25;;;20.93;66.65
27805;BME280;15183;51.350;11.102;2023-07-30T04:00:11;99426.25;;;20.84;66.70
27805;BME280;15183;51.350;11.102;2023-07-30T04:02:37;99405.97;;;20.73;66.63
27805;BME280;15183;51.350;11.102;2023-07-30T04:05:05;99432.97;;;20.95;66.67
27805;BME280;15183;51.350;11.102;2023-07-30T04:07:32;99435.84;;;20.99;67.13
27805;BME280;15183;51.350;11.102;2023-07-30T04:09:58;99414.84;;;20.87;66.97
27805;BME280;15183;51.350;11.102;2023-07-30T04:12:25;99444.59;;;21.05;67.41
27805;BME280;15183;51.350;11.102;2023-07-30T04:14:52;99437.22;;;21.10;67.50
27805;BME280;15183;51.350;11.102;2023-07-30T04:17:18;99439.66;;;21.21;67.55
27805;BME280;15183;51.350;11.102;2023-07-30T04:19:45;99443.19;;;21.30;67.93
27805;BME280;15183;51.350;11.102;2023-07-30T04:22:11;99431.84;;;21.42;68.01
27805;BME280;15183;51.350;11.102;2023-07-30T04:24:38;99455.91;;;21.61;68.41
27805;BME280;15183;51.350;11.102;2023-07-30T04:27:05;99463.94;;;21.75;68.38
27805;BME280;15183;51.350;11.102;2023-07-30T04:29:32;99397.97;;;21.50;68.41
27805;BME280;15183;51.350;11.102;2023-07-30T04:31:58;99470.88;;;22.08;68.27
27805;BME280;15183;51.350;11.102;2023-07-30T04:34:25;99458.88;;;22.23;68.54
27805;BME280;15183;51.350;11.102;2023-07-30T04:36:52;99456.72;;;22.43;69.32
27805;BME280;15183;51.350;11.102;2023-07-30T04:39:18;99465.34;;;22.71;69.36
27805;BME280;15183;51.350;11.102;2023-07-30T04:41:45;99473.16;;;22.90;69.37
27805;BME280;15183;51.350;11.102;2023-07-30T04:44:11;99460.41;;;22.91;68.83
27805;BME280;15183;51.350;11.102;2023-07-30T04:46:37;99495.41;;;23.22;68.82
27805;BME280;15183;51.350;11.102;2023-07-30T04:49:04;99426.09;;;22.91;68.55
27805;BME280;15183;51.350;11.102;2023-07-30T04:51:31;99436.09;;;22.99;68.50
27805;BME280;15183;51.350;11.102;2023-07-30T04:53:58;99483.78;;;23.39;68.05
27805;BME280;15183;51.350;11.102;2023-07-30T04:56:24;99491.09;;;23.48;67.78
27805;BME280;15183;51.350;11.102;2023-07-30T04:58:53;99496.50;;;23.56;68.22
27805;BME280;15183;51.350;11.102;2023-07-30T05:01:20;99500.88;;;23.79;68.61
27805;BME280;15183;51.350;11.102;2023-07-30T05:03:48;99508.16;;;23.96;68.67
27805;BME280;15183;51.350;11.102;2023-07-30T05:06:14;99476.06;;;23.77;68.88
27805;BME280;15183;51.350;11.102;2023-07-30T05:08:41;99478.06;;;23.97;69.42
27805;BME280;15183;51.350;11.102;2023-07-30T05:11:08;99493.66;;;24.39;69.00
27805;BME280;15183;51.350;11.102;2023-07-30T05:13:35;99500.00;;;24.43;67.65
27805;BME280;15183;51.350;11.102;2023-07-30T05:16:01;99497.69;;;24.33;67.50
27805;BME280;15183;51.350;11.102;2023-07-30T05:18:28;99518.88;;;24.31;66.74
27805;BME280;15183;51.350;11.102;2023-07-30T05:20:55;99514.44;;;24.18;66.40
27805;BME280;15183;51.350;11.102;2023-07-30T05:23:21;99520.56;;;24.06;66.30
27805;BME280;15183;51.350;11.102;2023-07-30T05:25:48;99499.91;;;23.83;66.92
27805;BME280;15183;51.350;11.102;2023-07-30T05:28:15;99517.53;;;23.98;67.20
27805;BME280;15183;51.350;11.102;2023-07-30T05:30:42;99509.41;;;23.98;67.51
27805;BME280;15183;51.350;11.102;2023-07-30T05:33:08;99515.47;;;24.04;67.59
27805;BME280;15183;51.350;11.102;2023-07-30T05:35:35;99496.38;;;24.01;67.41
27805;BME280;15183;51.350;11.102;2023-07-30T05:38:02;99501.56;;;24.14;68.26
27805;BME280;15183;51.350;11.102;2023-07-30T05:40:28;99514.38;;;24.35;68.38
27805;BME280;15183;51.350;11.102;2023-07-30T05:42:55;99521.91;;;24.60;68.69
27805;BME280;15183;51.350;11.102;2023-07-30T05:45:21;99525.31;;;24.78;69.88
27805;BME280;15183;51.350;11.102;2023-07-30T05:47:48;99523.34;;;25.08;70.27
27805;BME280;15183;51.350;11.102;2023-07-30T05:50:15;99521.28;;;25.26;69.74
27805;BME280;15183;51.350;11.102;2023-07-30T05:52:41;99527.50;;;25.48;69.52
27805;BME280;15183;51.350;11.102;2023-07-30T05:55:09;99500.19;;;25.44;68.91
27805;BME280;15183;51.350;11.102;2023-07-30T05:57:37;99452.13;;;25.33;69.61
27805;BME280;15183;51.350;11.102;2023-07-30T06:00:04;99517.53;;;26.11;71.02
27805;BME280;15183;51.350;11.102;2023-07-30T06:02:31;99499.03;;;26.38;71.42
27805;BME280;15183;51.350;11.102;2023-07-30T06:04:58;99513.78;;;26.90;72.22
27805;BME280;15183;51.350;11.102;2023-07-30T06:07:25;99516.34;;;27.27;72.09
27805;BME280;15183;51.350;11.102;2023-07-30T06:09:53;99501.72;;;27.61;72.23
27805;BME280;15183;51.350;11.102;2023-07-30T06:12:19;99499.88;;;27.97;71.24
27805;BME280;15183;51.350;11.102;2023-07-30T06:14:46;99462.09;;;28.11;70.63
27805;BME280;15183;51.350;11.102;2023-07-30T06:17:12;99510.59;;;28.73;69.97
27805;BME280;15183;51.350;11.102;2023-07-30T06:19:39;99496.44;;;29.03;68.97
27805;BME280;15183;51.350;11.102;2023-07-30T06:22:06;99508.06;;;29.40;68.98
27805;BME280;15183;51.350;11.102;2023-07-30T06:24:33;99507.19;;;29.55;68.26
27805;BME280;15183;51.350;11.102;2023-07-30T06:26:59;99509.72;;;29.68;68.00
27805;BME280;15183;51.350;11.102;2023-07-30T06:29:26;99504.31;;;29.71;67.21
27805;BME280;15183;51.350;11.102;2023-07-30T06:31:52;99523.94;;;30.00;67.13
27805;BME280;15183;51.350;11.102;2023-07-30T06:34:19;99516.22;;;30.06;65.78
27805;BME280;15183;51.350;11.102;2023-07-30T06:36:46;99500.84;;;29.98;64.38
27805;BME280;15183;51.350;11.102;2023-07-30T06:39:13;99502.38;;;29.95;63.43
27805;BME280;15183;51.350;11.102;2023-07-30T06:41:40;99518.03;;;29.98;63.18
27805;BME280;15183;51.350;11.102;2023-07-30T06:44:06;99492.94;;;29.93;63.04
27805;BME280;15183;51.350;11.102;2023-07-30T06:46:33;99497.84;;;30.03;62.21
27805;BME280;15183;51.350;11.102;2023-07-30T06:49:00;99463.22;;;29.87;60.74
27805;BME280;15183;51.350;11.102;2023-07-30T06:51:27;99500.78;;;30.17;60.03
27805;BME280;15183;51.350;11.102;2023-07-30T06:53:54;99501.69;;;30.25;59.26
27805;BME280;15183;51.350;11.102;2023-07-30T06:56:21;99521.44;;;30.42;58.11
27805;BME280;15183;51.350;11.102;2023-07-30T06:58:47;99505.50;;;30.47;58.40
27805;BME280;15183;51.350;11.102;2023-07-30T07:01:13;99509.03;;;30.75;56.92
27805;BME280;15183;51.350;11.102;2023-07-30T07:03:41;99501.84;;;30.63;55.24
27805;BME280;15183;51.350;11.102;2023-07-30T07:06:08;99500.88;;;30.52;54.23
27805;BME280;15183;51.350;11.102;2023-07-30T07:08:34;99508.47;;;30.62;53.23
27805;BME280;15183;51.350;11.102;2023-07-30T07:11:01;99511.41;;;30.77;52.46
27805;BME280;15183;51.350;11.102;2023-07-30T07:13:28;99522.84;;;30.86;51.53
27805;BME280;15183;51.350;11.102;2023-07-30T07:15:54;99511.41;;;30.77;51.08
27805;BME280;15183;51.350;11.102;2023-07-30T07:18:21;99528.66;;;30.84;50.78
27805;BME280;15183;51.350;11.102;2023-07-30T07:20:47;99529.06;;;30.83;50.65
27805;BME280;15183;51.350;11.102;2023-07-30T07:23:14;99511.41;;;30.77;50.54
27805;BME280;15183;51.350;11.102;2023-07-30T07:25:41;99520.16;;;30.89;49.78
27805;BME280;15183;51.350;11.102;2023-07-30T07:28:08;99527.72;;;31.00;49.39
27805;BME280;15183;51.350;11.102;2023-07-30T07:30:36;99516.38;;;31.01;49.46
27805;BME280;15183;51.350;11.102;2023-07-30T07:33:05;99525.63;;;31.20;49.08
27805;BME280;15183;51.350;11.102;2023-07-30T07:35:33;99502.56;;;31.25;48.58
27805;BME280;15183;51.350;11.102;2023-07-30T07:38:00;99509.75;;;31.37;48.53
27805;BME280;15183;51.350;11.102;2023-07-30T07:40:27;99511.25;;;31.30;47.56
27805;BME280;15183;51.350;11.102;2023-07-30T07:42:55;99470.44;;;30.84;46.68
27805;BME280;15183;51.350;11.102;2023-07-30T07:45:21;99499.94;;;30.98;46.62
27805;BME280;15183;51.350;11.102;2023-07-30T07:47:49;99519.22;;;31.09;46.99
27805;BME280;15183;51.350;11.102;2023-07-30T07:50:16;99489.00;;;31.01;47.38
27805;BME280;15183;51.350;11.102;2023-07-30T07:52:43;99510.44;;;31.26;46.65
27805;BME280;15183;51.350;11.102;2023-07-30T07:55:11;99499.44;;;31.23;45.97
27805;BME280;15183;51.350;11.102;2023-07-30T07:57:38;99467.09;;;30.98;45.87
27805;BME280;15183;51.350;11.102;2023-07-30T08:00:06;99521.84;;;31.32;45.57
27805;BME280;15183;51.350;11.102;2023-07-30T08:02:33;99523.72;;;31.24;45.26
27805;BME280;15183;51.350;11.102;2023-07-30T08:04:59;99513.22;;;30.99;44.16
27805;BME280;15183;51.350;11.102;2023-07-30T08:07:25;99527.34;;;30.71;43.71
27805;BME280;15183;51.350;11.102;2023-07-30T08:09:52;99503.00;;;30.35;43.81
27805;BME280;15183;51.350;11.102;2023-07-30T08:12:20;99526.59;;;30.47;43.68
27805;BME280;15183;51.350;11.102;2023-07-30T08:14:48;99531.75;;;30.52;43.90
27805;BME280;15183;51.350;11.102;2023-07-30T08:17:15;99523.50;;;30.49;43.55
27805;BME280;15183;51.350;11.102;2023-07-30T08:19:41;99508.47;;;30.35;43.92
27805;BME280;15183;51.350;11.102;2023-07-30T08:22:08;99481.00;;;30.28;43.85
27805;BME280;15183;51.350;11.102;2023-07-30T08:24:34;99517.97;;;30.72;43.88
27805;BME280;15183;51.350;11.102;2023-07-30T08:27:01;99524.78;;;30.85;43.40
27805;BME280;15183;51.350;11.102;2023-07-30T08:29:28;99514.16;;;30.80;43.82
27805;BME280;15183;51.350;11.102;2023-07-30T08:31:55;99516.44;;;31.05;42.79
27805;BME280;15183;51.350;11.102;2023-07-30T08:34:22;99511.31;;;31.03;42.16
27805;BME280;15183;51.350;11.102;2023-07-30T08:36:50;99509.00;;;31.05;42.10
27805;BME280;15183;51.350;11.102;2023-07-30T08:39:17;99497.63;;;31.03;42.79
27805;BME280;15183;51.350;11.102;2023-07-30T08:41:46;99513.00;;;31.12;41.45
27805;BME280;15183;51.350;11.102;2023-07-30T08:44:14;99522.72;;;31.09;41.33
27805;BME280;15183;51.350;11.102;2023-07-30T08:46:42;99498.22;;;30.86;41.64
27805;BME280;15183;51.350;11.102;2023-07-30T08:49:09;99463.59;;;30.67;41.80
27805;BME280;15183;51.350;11.102;2023-07-30T08:51:37;99499.94;;;30.98;41.16
27805;BME280;15183;51.350;11.102;2023-07-30T08:54:05;99503.50;;;31.02;41.24
27805;BME280;15183;51.350;11.102;2023-07-30T08:56:32;99498.03;;;31.02;40.83
27805;BME280;15183;51.350;11.102;2023-07-30T08:58:59;99502.47;;;31.14;41.25
27805;BME280;15183;51.350;11.102;2023-07-30T09:01:31;99503.34;;;31.22;40.65
27805;BME280;15183;51.350;11.102;2023-07-30T09:04:00;99512.06;;;31.35;41.14
27805;BME280;15183;51.350;11.102;2023-07-30T09:06:27;99495.34;;;31.43;40.32
27805;BME280;15183;51.350;11.102;2023-07-30T09:08:54;99500.88;;;31.51;40.11
27805;BME280;15183;51.350;11.102;2023-07-30T09:11:20;99499.19;;;31.39;40.71
27805;BME280;15183;51.350;11.102;2023-07-30T09:13:54;99494.47;;;31.36;39.84
27805;BME280;15183;51.350;11.102;2023-07-30T09:16:27;99486.63;;;31.30;40.11
27805;BME280;15183;51.350;11.102;2023-07-30T09:18:53;99477.16;;;31.24;39.75
27805;BME280;15183;51.350;11.102;2023-07-30T09:21:33;99469.19;;;31.12;40.14
27805;BME280;15183;51.350;11.102;2023-07-30T09:24:03;99469.22;;;31.15;40.25
27805;BME280;15183;51.350;11.102;2023-07-30T09:26:43;99495.53;;;31.24;40.57
27805;BME280;15183;51.350;11.102;2023-07-30T09:29:12;99494.72;;;31.19;39.91
27805;BME280;15183;51.350;11.102;2023-07-30T09:31:52;99497.16;;;31.28;40.25
27805;BME280;15183;51.350;11.102;2023-07-30T09:34:23;99496.41;;;31.31;39.87
27805;BME280;15183;51.350;11.102;2023-07-30T09:36:54;99504.34;;;31.44;40.35
27805;BME280;15183;51.350;11.102;2023-07-30T09:39:25;99490.66;;;31.44;39.86
27805;BME280;15183;51.350;11.102;2023-07-30T09:41:59;99507.28;;;31.66;40.00
27805;BME280;15183;51.350;11.102;2023-07-30T09:44:27;99501.13;;;31.76;38.95
27805;BME280;15183;51.350;11.102;2023-07-30T09:46:55;99506.69;;;31.83;38.95
27805;BME280;15183;51.350;11.102;2023-07-30T09:49:21;99487.53;;;31.87;38.80
27805;BME280;15183;51.350;11.102;2023-07-30T09:51:48;99488.78;;;32.00;39.12
27805;BME280;15183;51.350;11.102;2023-07-30T09:54:16;99492.38;;;32.08;38.89
27805;BME280;15183;51.350;11.102;2023-07-30T09:56:43;99504.16;;;32.09;37.95
27805;BME280;15183;51.350;11.102;2023-07-30T09:59:10;99504.09;;;32.05;38.29
27805;BME280;15183;51.350;11.102;2023-07-30T10:01:47;99513.06;;;31.98;38.22
27805;BME280;15183;51.350;11.102;2023-07-30T10:04:20;99499.28;;;31.87;37.88
27805;BME280;15183;51.350;11.102;2023-07-30T10:07:01;99490.53;;;31.74;38.69
27805;BME280;15183;51.350;11.102;2023-07-30T10:09:35;99483.53;;;31.77;38.76
27805;BME280;15183;51.350;11.102;2023-07-30T10:12:05;99495.84;;;31.98;38.22
27805;BME280;15183;51.350;11.102;2023-07-30T10:14:32;99482.50;;;31.96;38.62
27805;BME280;15183;51.350;11.102;2023-07-30T10:17:00;99489.28;;;32.13;37.98
27805;BME280;15183;51.350;11.102;2023-07-30T10:19:29;99472.84;;;32.13;37.86
27805;BME280;15183;51.350;11.102;2023-07-30T10:22:22;99468.56;;;32.19;38.32
27805;BME280;15183;51.350;11.102;2023-07-30T10:25:02;99485.84;;;32.24;37.53
27805;BME280;15183;51.350;11.102;2023-07-30T10:27:41;99490.84;;;32.14;37.87
27805;BME280;15183;51.350;11.102;2023-07-30T10:30:16;99478.69;;;32.08;37.88
27805;BME280;15183;51.350;11.102;2023-07-30T10:35:45;99484.97;;;31.64;37.74
27805;BME280;15183;51.350;11.102;2023-07-30T10:38:28;99475.38;;;31.39;38.44
27805;BME280;15183;51.350;11.102;2023-07-30T10:41:07;99488.66;;;31.41;37.93
27805;BME280;15183;51.350;11.102;2023-07-30T10:43:42;99481.59;;;31.36;37.49
27805;BME280;15183;51.350;11.102;2023-07-30T10:46:13;99472.94;;;31.30;38.01
27805;BME280;15183;51.350;11.102;2023-07-30T10:48:42;99478.13;;;31.43;38.04
27805;BME280;15183;51.350;11.102;2023-07-30T10:51:16;99480.84;;;31.39;37.25
27805;BME280;15183;51.350;11.102;2023-07-30T10:53:46;99472.44;;;31.21;37.91
27805;BME280;15183;51.350;11.102;2023-07-30T10:56:22;99495.41;;;31.13;37.95
27805;BME280;15183;51.350;11.102;2023-07-30T10:58:53;99493.84;;;31.12;38.27
27805;BME280;15183;51.350;11.102;2023-07-30T11:01:20;99478.28;;;31.19;38.34
27805;BME280;15183;51.350;11.102;2023-07-30T11:03:50;99488.56;;;31.30;38.48
27805;BME280;15183;51.350;11.102;2023-07-30T11:06:24;99476.88;;;31.33;37.96
27805;BME280;15183;51.350;11.102;2023-07-30T11:08:51;99484.69;;;31.35;38.03
27805;BME280;15183;51.350;11.102;2023-07-30T11:11:18;99484.47;;;31.13;37.54
27805;BME280;15183;51.350;11.102;2023-07-30T11:13:46;99484.22;;;30.91;38.02
27805;BME280;15183;51.350;11.102;2023-07-30T11:16:15;99479.09;;;30.59;38.76
27805;BME280;15183;51.350;11.102;2023-07-30T11:18:43;99487.47;;;30.43;38.31
27805;BME280;15183;51.350;11.102;2023-07-30T11:21:13;99497.31;;;30.21;38.92
27805;BME280;15183;51.350;11.102;2023-07-30T11:23:41;99487.63;;;30.00;39.12
27805;BME280;15183;51.350;11.102;2023-07-30T11:26:18;99500.50;;;29.76;39.90
27805;BME280;15183;51.350;11.102;2023-07-30T11:28:46;99497.84;;;29.37;40.30
27805;BME280;15183;51.350;11.102;2023-07-30T11:31:16;99502.19;;;28.98;41.09
27805;BME280;15183;51.350;11.102;2023-07-30T11:33:45;99509.16;;;28.60;41.48
27805;BME280;15183;51.350;11.102;2023-07-30T11:36:21;99511.78;;;28.21;42.12
27805;BME280;15183;51.350;11.102;2023-07-30T11:38:48;99505.00;;;27.82;43.12
27805;BME280;15183;51.350;11.102;2023-07-30T11:41:15;99507.38;;;27.68;43.08
27805;BME280;15183;51.350;11.102;2023-07-30T11:43:43;99518.41;;;27.59;43.43
27805;BME280;15183;51.350;11.102;2023-07-30T11:46:13;99526.50;;;27.43;43.83
27805;BME280;15183;51.350;11.102;2023-07-30T11:48:45;99515.84;;;27.22;44.20
27805;BME280;15183;51.350;11.102;2023-07-30T11:51:27;99521.25;;;26.93;45.17
27805;BME280;15183;51.350;11.102;2023-07-30T11:53:57;99519.69;;;26.67;46.09
27805;BME280;15183;51.350;11.102;2023-07-30T11:56:28;99527.19;;;26.58;46.24
27805;BME280;15183;51.350;11.102;2023-07-30T11:59:11;99513.59;;;26.46;46.44
27805;BME280;15183;51.350;11.102;2023-07-30T12:01:37;99518.81;;;26.38;46.51
27805;BME280;15183;51.350;11.102;2023-07-30T12:04:06;99501.81;;;26.04;47.15
27805;BME280;15183;51.350;11.102;2023-07-30T12:06:39;99533.25;;;25.80;48.04
27805;BME280;15183;51.350;11.102;2023-07-30T12:09:20;99529.66;;;25.55;48.90
27805;BME280;15183;51.350;11.102;2023-07-30T12:12:01;99522.53;;;25.29;49.47
27805;BME280;15183;51.350;11.102;2023-07-30T12:14:29;99536.47;;;25.40;49.79
27805;BME280;15183;51.350;11.102;2023-07-30T12:17:08;99542.44;;;25.54;49.42
27805;BME280;15183;51.350;11.102;2023-07-30T12:19:35;99531.38;;;25.60;49.18
27805;BME280;15183;51.350;11.102;2023-07-30T12:22:04;99530.72;;;25.75;49.14
27805;BME280;15183;51.350;11.102;2023-07-30T12:24:31;99544.69;;;25.98;49.24
27805;BME280;15183;51.350;11.102;2023-07-30T12:26:57;99550.47;;;26.09;48.57
27805;BME280;15183;51.350;11.102;2023-07-30T12:29:25;99553.47;;;26.29;49.06
27805;BME280;15183;51.350;11.102;2023-07-30T12:31:51;99544.31;;;26.34;48.49
27805;BME280;15183;51.350;11.102;2023-07-30T12:34:20;99551.19;;;26.43;48.73
27805;BME280;15183;51.350;11.102;2023-07-30T12:36:46;99550.84;;;26.45;48.68
27805;BME280;15183;51.350;11.102;2023-07-30T12:39:13;99536.59;;;26.36;48.83
27805;BME280;15183;51.350;11.102;2023-07-30T12:41:39;99539.09;;;26.41;49.29
27805;BME280;15183;51.350;11.102;2023-07-30T12:44:06;99533.06;;;26.48;48.69
27805;BME280;15183;51.350;11.102;2023-07-30T12:46:32;99520.63;;;26.59;48.97
27805;BME280;15183;51.350;11.102;2023-07-30T12:49:00;99537.59;;;26.68;48.72
27805;BME280;15183;51.350;11.102;2023-07-30T12:51:31;99542.47;;;26.75;48.40
27805;BME280;15183;51.350;11.102;2023-07-30T12:53:58;99515.41;;;26.66;48.22
27805;BME280;15183;51.350;11.102;2023-07-30T12:56:24;99518.56;;;26.68;48.29
27805;BME280;15183;51.350;11.102;2023-07-30T12:58:52;99546.84;;;26.80;48.02